This is the latest recevied weather packets stored in our database for station/object KJ6APE. If no packets are shown the sender has not sent any weather packets the latest 10 day(s).
| Time | Temp. | Humidity | Pressure | Rain* | Wind** | Luminosity | Snow |
|---|---|---|---|---|---|---|---|
| 1777399749 | 19.44° C | 52% | 1020.6 hPa | 0 mm | - | 804 W/m² | - |
| 1777399445 | 18.89° C | 54% | 1020.5 hPa | 0 mm | - | 792 W/m² | - |
| 1777399143 | 18.89° C | 53% | 1020.6 hPa | 0 mm | - | 778 W/m² | - |
| 1777398839 | 19.44° C | 51% | 1020.6 hPa | 0 mm | - | 760 W/m² | - |
| 1777398536 | 20° C | 51% | 1020.6 hPa | 0 mm | - | 751 W/m² | - |
| 1777398233 | 19.44° C | 53% | 1020.7 hPa | 0 mm | - | 737 W/m² | - |
| 1777397930 | 18.89° C | 54% | 1020.7 hPa | 0 mm | - | 723 W/m² | - |
| 1777397625 | 18.89° C | 54% | 1020.7 hPa | 0 mm | - | 705 W/m² | - |
| 1777397322 | 18.89° C | 55% | 1020.6 hPa | 0 mm | - | 688 W/m² | - |
| 1777397019 | 18.33° C | 56% | 1020.8 hPa | 0 mm | - | 671 W/m² | - |
| 1777396716 | 18.33° C | 57% | 1020.6 hPa | 0 mm | - | 654 W/m² | - |
| 1777396412 | 18.33° C | 56% | 1020.8 hPa | 0 mm | - | 640 W/m² | - |
| 1777396109 | 18.33° C | 57% | 1020.6 hPa | 0 mm | - | 621 W/m² | - |
| 1777395805 | 17.78° C | 58% | 1020.5 hPa | 0 mm | - | 606 W/m² | - |
| 1777395500 | 17.78° C | 58% | 1020.6 hPa | 0 mm | - | 590 W/m² | - |
| 1777395198 | 16.67° C | 61% | 1020.7 hPa | 0 mm | - | 568 W/m² | - |
| 1777394895 | 17.22° C | 61% | 1020.5 hPa | 0 mm | - | 550 W/m² | - |
| 1777394590 | 16.67° C | 63% | 1020.5 hPa | 0 mm | - | 531 W/m² | - |
| 1777394287 | 16.11° C | 65% | 1020.7 hPa | 0 mm | - | 513 W/m² | - |
| 1777393984 | 16.11° C | 65% | 1020.8 hPa | 0 mm | - | 527 W/m² | - |
| 1777393683 | 16.11° C | 63% | 1020.6 hPa | 0 mm | - | 471 W/m² | - |
| 1777393379 | 16.11° C | 65% | 1020.7 hPa | 0 mm | - | 450 W/m² | - |
| 1777393075 | 15.56° C | 66% | 1020.7 hPa | 0 mm | - | 431 W/m² | - |
| 1777392771 | 15° C | 68% | 1020.7 hPa | 0 mm | - | 414 W/m² | - |
| 1777392467 | 15° C | 68% | 1020.7 hPa | 0 mm | - | 391 W/m² | - |
* Rain latest hour (hover to see other rain measurements)
** Current wind speed in m/s (hover to see current wind gust speed)